Time;durP1;ratioP1;P1;durP2;ratioP2;P2;SDS_P1;SDS_P2;PMS_P1;PMS_P2;Temp;Humidity;BMP_temperature;BMP_pressure;BME280_temperature;BME280_humidity;BME280_pressure;Samples;Min_cycle;Max_cycle;Signal;HPM_P1;HPM_P2
2022/11/25 00:03:23;;;;;;;;;;;9.30;99.90;;;;;;8396558;28;20459;-71
2022/11/25 00:07:24;;;;;;;;;;;9.30;99.90;;;;;;8402275;28;19928;-71
2022/11/25 00:11:26;;;;;;;;;;;9.30;99.90;;;;;;8425826;28;20220;-71
2022/11/25 00:15:28;;;;;;;;;;;9.30;99.90;;;;;;8418048;28;19928;-70
2022/11/25 00:19:30;;;;;;;;;;;9.30;99.90;;;;;;8425803;28;19931;-71
2022/11/25 00:23:31;;;;;;;;;;;9.40;99.90;;;;;;8422182;28;20302;-71
2022/11/25 00:27:33;;;;;;;;;;;9.40;99.90;;;;;;8402899;28;20282;-71
2022/11/25 00:31:36;;;;;;;;;;;9.30;99.90;;;;;;8411439;28;19964;-70
2022/11/25 00:35:38;;;;;;;;;;;9.30;99.90;;;;;;8410755;28;19928;-70
2022/11/25 00:39:39;;;;;;;;;;;9.30;99.90;;;;;;8399221;28;19930;-71
2022/11/25 00:48:01;;;;;;;;;;;9.30;99.90;;;;;;8426451;28;19936;-71
2022/11/25 00:52:04;;;;;;;;;;;9.30;99.90;;;;;;8410255;28;19927;-71
2022/11/25 00:56:14;;;;;;;;;;;9.30;99.90;;;;;;8411418;28;19931;-71
2022/11/25 01:00:16;;;;;;;;;;;9.30;99.90;;;;;;8392170;28;19955;-71
2022/11/25 01:04:17;;;;;;;;;;;9.30;99.90;;;;;;8415091;28;19924;-71
2022/11/25 01:08:19;;;;;;;;;;;9.30;99.90;;;;;;8395133;28;20000;-71
2022/11/25 01:12:21;;;;;;;;;;;9.30;99.90;;;;;;8410536;28;20431;-70
2022/11/25 01:16:23;;;;;;;;;;;9.40;99.90;;;;;;8411811;28;19930;-71
2022/11/25 01:20:25;;;;;;;;;;;9.40;99.90;;;;;;8413495;28;20213;-71
2022/11/25 01:24:26;;;;;;;;;;;9.40;99.90;;;;;;8421217;28;19927;-71
2022/11/25 01:28:28;;;;;;;;;;;9.40;99.90;;;;;;8428844;28;19924;-71
2022/11/25 01:32:29;;;;;;;;;;;9.40;99.90;;;;;;8421792;28;19928;-71
2022/11/25 01:36:31;;;;;;;;;;;9.40;99.90;;;;;;8405526;28;20418;-71
2022/11/25 01:40:34;;;;;;;;;;;9.40;99.90;;;;;;8396680;28;19928;-70
2022/11/25 01:44:37;;;;;;;;;;;9.50;99.90;;;;;;8415393;28;19967;-71
2022/11/25 01:48:51;;;;;;;;;;;9.50;99.90;;;;;;8383057;28;19928;-71
2022/11/25 01:52:54;;;;;;;;;;;9.50;99.90;;;;;;8413367;28;19928;-71
2022/11/25 01:57:00;;;;;;;;;;;9.50;99.90;;;;;;8394520;28;20414;-71
2022/11/25 02:01:02;;;;;;;;;;;9.50;99.90;;;;;;8391662;28;20363;-71
2022/11/25 02:05:08;;;;;;;;;;;9.50;99.90;;;;;;8415624;28;19977;-71
2022/11/25 02:09:10;;;;;;;;;;;9.50;99.90;;;;;;8417755;28;19924;-70
2022/11/25 02:13:11;;;;;;;;;;;9.50;99.90;;;;;;8407301;28;19924;-71
2022/11/25 02:17:50;;;;;;;;;;;9.50;99.90;;;;;;8401539;28;19984;-70
2022/11/25 02:21:55;;;;;;;;;;;9.50;99.90;;;;;;8406803;28;19955;-70
2022/11/25 02:25:57;;;;;;;;;;;9.60;99.90;;;;;;8407540;28;20292;-70
2022/11/25 02:29:58;;;;;;;;;;;9.60;99.90;;;;;;8393816;28;19924;-70
2022/11/25 02:34:00;;;;;;;;;;;9.60;99.90;;;;;;8412076;28;19971;-70
2022/11/25 02:38:28;;;;;;;;;;;9.60;99.90;;;;;;8390783;28;19936;-71
2022/11/25 02:42:30;;;;;;;;;;;9.60;99.90;;;;;;8365395;28;19928;-71
2022/11/25 02:46:31;;;;;;;;;;;9.60;99.90;;;;;;8391267;28;19959;-71
2022/11/25 02:50:33;;;;;;;;;;;9.60;99.90;;;;;;8403847;28;20376;-71
2022/11/25 02:54:35;;;;;;;;;;;9.60;99.90;;;;;;8406889;28;19931;-71
2022/11/25 02:58:37;;;;;;;;;;;9.60;99.90;;;;;;8414985;28;19928;-71
2022/11/25 03:02:39;;;;;;;;;;;9.60;99.90;;;;;;8402857;28;19930;-70
2022/11/25 03:06:41;;;;;;;;;;;9.60;99.90;;;;;;8395096;28;19924;-70
2022/11/25 03:10:42;;;;;;;;;;;9.60;99.90;;;;;;8402865;28;19939;-70
2022/11/25 03:14:44;;;;;;;;;;;9.60;99.90;;;;;;8414555;28;20345;-71
2022/11/25 03:18:45;;;;;;;;;;;9.60;99.90;;;;;;8384981;28;19930;-70
2022/11/25 03:22:47;;;;;;;;;;;9.60;99.90;;;;;;8423725;28;19970;-70
2022/11/25 03:26:49;;;;;;;;;;;9.60;99.90;;;;;;8418732;28;19935;-71
2022/11/25 03:30:50;;;;;;;;;;;9.60;99.90;;;;;;8403326;28;19924;-71
2022/11/25 03:34:52;;;;;;;;;;;9.60;99.90;;;;;;8414001;28;19939;-71
2022/11/25 03:38:54;;;;;;;;;;;9.50;99.90;;;;;;8421330;28;19931;-71
2022/11/25 03:42:55;;;;;;;;;;;9.50;99.90;;;;;;8414155;28;19934;-71
2022/11/25 03:51:54;;;;;;;;;;;9.50;99.90;;;;;;8421398;28;20423;-71
2022/11/25 04:06:10;;;;;;;;;;;9.50;99.90;;;;;;8427058;28;19918;-71
2022/11/25 04:10:11;;;;;;;;;;;9.50;99.90;;;;;;8429060;28;19966;-71
2022/11/25 04:14:13;;;;;;;;;;;9.40;99.90;;;;;;8422961;28;20398;-71
2022/11/25 04:18:15;;;;;;;;;;;9.40;99.90;;;;;;8391297;28;20366;-71
2022/11/25 04:22:17;;;;;;;;;;;9.40;99.90;;;;;;8408960;28;19935;-71
2022/11/25 04:26:19;;;;;;;;;;;9.40;99.90;;;;;;8414529;28;19924;-71
2022/11/25 04:30:20;;;;;;;;;;;9.40;99.90;;;;;;8413424;28;20524;-71
2022/11/25 04:34:23;;;;;;;;;;;9.40;99.90;;;;;;8407014;28;19932;-70
2022/11/25 04:38:24;;;;;;;;;;;9.30;99.90;;;;;;8405126;28;20412;-71
2022/11/25 04:42:33;;;;;;;;;;;9.30;99.90;;;;;;8404093;28;19932;-70
2022/11/25 04:46:36;;;;;;;;;;;9.30;99.90;;;;;;8419605;28;19930;-71
2022/11/25 04:50:38;;;;;;;;;;;9.20;99.90;;;;;;8420181;28;19934;-71
2022/11/25 04:54:40;;;;;;;;;;;9.20;99.90;;;;;;8408239;28;20317;-71
2022/11/25 05:03:02;;;;;;;;;;;9.00;99.90;;;;;;8412749;28;19924;-71
2022/11/25 05:07:03;;;;;;;;;;;9.00;99.90;;;;;;8422895;28;19924;-71
2022/11/25 05:11:05;;;;;;;;;;;8.90;99.90;;;;;;8400402;28;19924;-71
2022/11/25 05:15:07;;;;;;;;;;;8.90;99.90;;;;;;8409354;28;19923;-70
2022/11/25 05:19:08;;;;;;;;;;;8.90;99.90;;;;;;8402400;28;19928;-71
2022/11/25 05:23:10;;;;;;;;;;;8.80;99.90;;;;;;8420816;28;19931;-71
2022/11/25 05:27:12;;;;;;;;;;;8.70;99.90;;;;;;8402164;28;19931;-71
2022/11/25 05:31:13;;;;;;;;;;;8.70;99.90;;;;;;8420311;28;20274;-71
2022/11/25 05:35:15;;;;;;;;;;;8.60;99.90;;;;;;8400410;28;20339;-71
2022/11/25 05:39:17;;;;;;;;;;;8.60;99.90;;;;;;8424028;28;20356;-70
2022/11/25 05:43:19;;;;;;;;;;;8.60;99.90;;;;;;8396248;28;19932;-70
2022/11/25 05:47:20;;;;;;;;;;;8.60;99.90;;;;;;8429336;28;19923;-70
2022/11/25 05:51:23;;;;;;;;;;;8.60;99.90;;;;;;8394310;28;19928;-71
2022/11/25 05:55:24;;;;;;;;;;;8.60;99.90;;;;;;8397931;28;19928;-70
2022/11/25 05:59:26;;;;;;;;;;;8.50;99.90;;;;;;8416856;28;19971;-71
2022/11/25 06:03:28;;;;;;;;;;;8.50;99.90;;;;;;8407601;28;19979;-70
2022/11/25 06:07:29;;;;;;;;;;;8.50;99.90;;;;;;8394606;28;19928;-70
2022/11/25 06:11:31;;;;;;;;;;;8.50;99.90;;;;;;8419925;28;19925;-70
2022/11/25 06:15:33;;;;;;;;;;;8.50;99.90;;;;;;8417346;28;20019;-70
2022/11/25 06:19:34;;;;;;;;;;;8.50;99.90;;;;;;8424500;28;19970;-70
2022/11/25 06:23:36;;;;;;;;;;;8.50;99.90;;;;;;8415375;28;19924;-70
2022/11/25 06:27:38;;;;;;;;;;;8.50;99.90;;;;;;8401003;28;19932;-69
2022/11/25 06:31:59;;;;;;;;;;;8.40;99.90;;;;;;8416572;28;19924;-70
2022/11/25 06:36:02;;;;;;;;;;;8.40;99.90;;;;;;8428109;28;19931;-70
2022/11/25 06:40:04;;;;;;;;;;;8.40;99.90;;;;;;8416533;28;19924;-70
2022/11/25 06:44:06;;;;;;;;;;;8.40;99.90;;;;;;8400301;28;19936;-71
2022/11/25 06:48:07;;;;;;;;;;;8.30;99.90;;;;;;8411344;28;19943;-71
2022/11/25 06:52:09;;;;;;;;;;;8.30;99.90;;;;;;8418745;28;19925;-70
2022/11/25 06:56:18;;;;;;;;;;;8.30;99.90;;;;;;8413119;28;19929;-70
2022/11/25 07:00:20;;;;;;;;;;;8.20;99.90;;;;;;8421290;28;19932;-70
2022/11/25 07:04:21;;;;;;;;;;;8.20;99.90;;;;;;8416313;28;19938;-71
2022/11/25 07:08:23;;;;;;;;;;;8.20;99.90;;;;;;8420222;28;19971;-70
2022/11/25 07:12:29;;;;;;;;;;;8.10;99.90;;;;;;8387403;28;20058;-70
2022/11/25 07:16:31;;;;;;;;;;;8.10;99.90;;;;;;8404668;28;19931;-70
2022/11/25 07:20:33;;;;;;;;;;;8.10;99.90;;;;;;8409677;28;19942;-70
2022/11/25 07:24:34;;;;;;;;;;;8.10;99.90;;;;;;8417620;28;19930;-71
2022/11/25 07:28:36;;;;;;;;;;;8.00;99.90;;;;;;8402151;28;19928;-71
2022/11/25 07:32:38;;;;;;;;;;;8.00;99.90;;;;;;8423580;28;19933;-70
2022/11/25 07:36:40;;;;;;;;;;;8.00;99.90;;;;;;8408118;28;20398;-71
2022/11/25 07:40:41;;;;;;;;;;;8.00;99.90;;;;;;8407197;28;19943;-70
2022/11/25 07:44:43;;;;;;;;;;;8.00;99.90;;;;;;8424726;28;19928;-70
2022/11/25 07:48:45;;;;;;;;;;;7.90;99.90;;;;;;8419809;28;19973;-70
2022/11/25 07:52:46;;;;;;;;;;;7.90;99.90;;;;;;8415248;28;19931;-70
2022/11/25 07:56:49;;;;;;;;;;;7.90;99.90;;;;;;8410448;28;19928;-70
2022/11/25 08:00:51;;;;;;;;;;;7.90;99.90;;;;;;8418759;28;20030;-71
2022/11/25 08:04:52;;;;;;;;;;;8.00;99.90;;;;;;8410063;28;20280;-70
2022/11/25 08:08:55;;;;;;;;;;;8.00;99.90;;;;;;8404672;28;19967;-70
2022/11/25 08:12:56;;;;;;;;;;;8.00;99.90;;;;;;8416713;28;19932;-70
2022/11/25 08:16:58;;;;;;;;;;;8.00;99.90;;;;;;8413191;28;20019;-71
2022/11/25 08:21:03;;;;;;;;;;;8.00;99.90;;;;;;8396246;28;19932;-70
2022/11/25 08:25:05;;;;;;;;;;;8.10;99.90;;;;;;8420426;28;20344;-70
2022/11/25 08:29:08;;;;;;;;;;;8.10;99.90;;;;;;8405938;28;20280;-70
2022/11/25 08:33:10;;;;;;;;;;;8.20;99.90;;;;;;8398983;28;19939;-70
2022/11/25 08:37:11;;;;;;;;;;;8.30;99.90;;;;;;8420742;28;19928;-70
2022/11/25 08:41:15;;;;;;;;;;;8.30;99.90;;;;;;8408569;28;19959;-70
2022/11/25 08:45:16;;;;;;;;;;;8.40;99.90;;;;;;8413706;28;20269;-71
2022/11/25 08:49:18;;;;;;;;;;;8.50;99.90;;;;;;8413997;28;19935;-70
2022/11/25 08:53:20;;;;;;;;;;;8.70;99.90;;;;;;8405034;28;20379;-70
2022/11/25 08:57:22;;;;;;;;;;;8.80;99.90;;;;;;8409120;28;20295;-70
2022/11/25 09:01:24;;;;;;;;;;;9.00;99.90;;;;;;8417550;28;20406;-70
2022/11/25 09:05:25;;;;;;;;;;;9.20;99.90;;;;;;8413606;28;20503;-70
2022/11/25 09:09:27;;;;;;;;;;;9.40;99.90;;;;;;8420760;28;20362;-71
2022/11/25 09:13:29;;;;;;;;;;;9.60;99.90;;;;;;8414686;28;19924;-70
2022/11/25 09:17:33;;;;;;;;;;;9.70;99.90;;;;;;8403852;28;19932;-70
2022/11/25 09:21:34;;;;;;;;;;;9.70;99.90;;;;;;8402522;28;19924;-70
2022/11/25 09:25:36;;;;;;;;;;;9.80;99.90;;;;;;8402248;28;20340;-71
2022/11/25 09:29:38;;;;;;;;;;;9.80;99.90;;;;;;8417314;28;20014;-70
2022/11/25 09:33:40;;;;;;;;;;;9.80;99.90;;;;;;8411890;28;19924;-70
2022/11/25 09:37:41;;;;;;;;;;;9.80;99.90;;;;;;8414609;28;19963;-70
2022/11/25 09:46:40;;;;;;;;;;;9.90;99.90;;;;;;8413207;28;19924;-70
2022/11/25 09:50:42;;;;;;;;;;;10.00;99.90;;;;;;8400228;28;19960;-70
2022/11/25 09:54:47;;;;;;;;;;;10.10;99.90;;;;;;8391457;28;20278;-70
2022/11/25 09:58:52;;;;;;;;;;;10.20;99.90;;;;;;8408689;28;19928;-71
2022/11/25 10:02:56;;;;;;;;;;;10.30;99.90;;;;;;8401355;28;19974;-70
2022/11/25 10:07:01;;;;;;;;;;;10.30;99.90;;;;;;8394479;28;19928;-70
2022/11/25 10:11:13;;;;;;;;;;;10.40;99.90;;;;;;8394350;28;20272;-70
2022/11/25 10:15:22;;;;;;;;;;;10.50;99.90;;;;;;8417370;28;19924;-71
2022/11/25 10:19:29;;;;;;;;;;;10.60;99.90;;;;;;8428753;28;19924;-70
2022/11/25 10:23:33;;;;;;;;;;;10.80;99.90;;;;;;8419426;28;19934;-71
2022/11/25 10:27:47;;;;;;;;;;;10.90;99.90;;;;;;8419457;28;19924;-71
2022/11/25 10:31:50;;;;;;;;;;;11.00;99.90;;;;;;8396253;28;19932;-71
2022/11/25 10:35:54;;;;;;;;;;;11.30;99.90;;;;;;8410166;28;19924;-71
2022/11/25 10:39:56;;;;;;;;;;;11.80;99.90;;;;;;8408898;28;19928;-70
2022/11/25 10:43:57;;;;;;;;;;;12.30;99.90;;;;;;8392058;28;19924;-70
2022/11/25 10:48:05;;;;;;;;;;;12.90;99.90;;;;;;8400794;28;19932;-71
2022/11/25 10:52:10;;;;;;;;;;;13.30;99.90;;;;;;8414478;28;19924;-71
2022/11/25 10:56:16;;;;;;;;;;;13.60;99.90;;;;;;8391351;28;20371;-70
2022/11/25 11:00:24;;;;;;;;;;;13.90;99.90;;;;;;8381796;28;20340;-70
2022/11/25 11:04:26;;;;;;;;;;;14.10;99.90;;;;;;8389125;28;19939;-70
2022/11/25 11:08:36;;;;;;;;;;;14.30;99.90;;;;;;8382796;28;19925;-71
2022/11/25 11:12:48;;;;;;;;;;;14.60;99.90;;;;;;8374675;28;19964;-70
2022/11/25 11:16:52;;;;;;;;;;;14.90;99.90;;;;;;8379601;28;20290;-71
2022/11/25 11:20:59;;;;;;;;;;;15.30;99.90;;;;;;8397126;28;19931;-71
2022/11/25 11:25:08;;;;;;;;;;;15.60;99.90;;;;;;8398450;28;19978;-70
2022/11/25 11:29:14;;;;;;;;;;;15.80;99.90;;;;;;8396011;28;20022;-71
2022/11/25 11:33:35;;;;;;;;;;;16.10;99.90;;;;;;8386243;28;19940;-71
2022/11/25 11:37:37;;;;;;;;;;;16.20;99.90;;;;;;8368016;28;20377;-71
2022/11/25 11:41:40;;;;;;;;;;;16.30;99.90;;;;;;8388513;28;19976;-71
2022/11/25 11:45:47;;;;;;;;;;;16.20;99.90;;;;;;8388502;28;19936;-70
2022/11/25 11:49:49;;;;;;;;;;;16.10;99.90;;;;;;8389039;28;19929;-70
2022/11/25 11:53:50;;;;;;;;;;;16.10;99.90;;;;;;8399425;28;20441;-71
2022/11/25 11:58:03;;;;;;;;;;;16.10;99.90;;;;;;8395191;28;19928;-71
2022/11/25 12:02:20;;;;;;;;;;;16.30;99.90;;;;;;8396402;28;19974;-71
2022/11/25 12:06:23;;;;;;;;;;;16.60;99.90;;;;;;8404030;28;20051;-71
2022/11/25 12:10:24;;;;;;;;;;;16.80;99.90;;;;;;8396911;28;19932;-71
2022/11/25 12:14:32;;;;;;;;;;;16.80;99.90;;;;;;8409240;28;19939;-70
2022/11/25 12:18:46;;;;;;;;;;;16.80;99.90;;;;;;8407357;28;20011;-71
2022/11/25 12:22:56;;;;;;;;;;;16.60;99.90;;;;;;8406039;28;20407;-71
2022/11/25 12:27:04;;;;;;;;;;;16.40;99.90;;;;;;8403109;28;19932;-70
2022/11/25 12:31:11;;;;;;;;;;;16.50;99.90;;;;;;8393434;28;20414;-70
2022/11/25 12:35:19;;;;;;;;;;;16.50;99.90;;;;;;8398367;28;19931;-71
2022/11/25 12:39:31;;;;;;;;;;;16.20;99.90;;;;;;8405432;28;19951;-71
2022/11/25 12:43:40;;;;;;;;;;;15.70;99.90;;;;;;8402914;28;20383;-70
2022/11/25 12:47:42;;;;;;;;;;;15.10;99.90;;;;;;8389528;28;19934;-70
2022/11/25 12:51:55;;;;;;;;;;;14.90;99.90;;;;;;8387974;28;19924;-71
2022/11/25 12:56:00;;;;;;;;;;;15.30;99.90;;;;;;8399450;28;21484;-70
2022/11/25 13:00:01;;;;;;;;;;;16.00;99.90;;;;;;8391047;28;20023;-71
2022/11/25 13:04:23;;;;;;;;;;;16.50;99.90;;;;;;8394444;28;19924;-70
2022/11/25 13:08:40;;;;;;;;;;;16.70;99.90;;;;;;8379666;28;19924;-71
2022/11/25 13:13:00;;;;;;;;;;;16.20;99.90;;;;;;8403859;28;21162;-71
2022/11/25 13:17:02;;;;;;;;;;;15.60;99.90;;;;;;8393769;28;20397;-70
2022/11/25 13:21:05;;;;;;;;;;;15.10;99.90;;;;;;8398644;28;19924;-71
2022/11/25 13:25:23;;;;;;;;;;;14.90;99.90;;;;;;8401295;28;19954;-70
2022/11/25 13:29:24;;;;;;;;;;;14.80;99.90;;;;;;8396045;28;19935;-71
2022/11/25 13:33:26;;;;;;;;;;;14.60;99.90;;;;;;8389275;28;20283;-71
2022/11/25 13:37:35;;;;;;;;;;;14.50;99.90;;;;;;8390027;28;20348;-71
2022/11/25 13:41:47;;;;;;;;;;;14.40;99.90;;;;;;8391450;28;19951;-70
2022/11/25 13:45:49;;;;;;;;;;;14.40;99.90;;;;;;8384469;28;19928;-71
2022/11/25 13:49:56;;;;;;;;;;;14.50;99.90;;;;;;8391883;28;20348;-71
2022/11/25 13:54:04;;;;;;;;;;;14.40;99.90;;;;;;8404152;28;19951;-70
2022/11/25 13:58:28;;;;;;;;;;;14.50;99.90;;;;;;8398881;28;22803;-70
2022/11/25 14:02:31;;;;;;;;;;;14.50;99.90;;;;;;8384927;28;20307;-71
2022/11/25 14:06:38;;;;;;;;;;;14.40;99.90;;;;;;8381527;28;20501;-71
2022/11/25 14:10:43;;;;;;;;;;;14.40;99.90;;;;;;8392144;28;19970;-70
2022/11/25 14:14:55;;;;;;;;;;;14.30;99.90;;;;;;8387628;28;19972;-71
2022/11/25 14:19:16;;;;;;;;;;;14.30;99.90;;;;;;8394053;28;19924;-71
2022/11/25 14:23:45;;;;;;;;;;;14.30;99.90;;;;;;8395597;28;19924;-71
2022/11/25 14:27:49;;;;;;;;;;;14.40;99.90;;;;;;8393608;28;20393;-71
2022/11/25 14:31:54;;;;;;;;;;;14.40;99.90;;;;;;8394533;28;19976;-71
2022/11/25 14:36:00;;;;;;;;;;;14.30;99.90;;;;;;8384804;28;19931;-71
2022/11/25 14:40:05;;;;;;;;;;;14.30;99.90;;;;;;8400536;28;19929;-71
2022/11/25 14:44:13;;;;;;;;;;;14.60;99.90;;;;;;8385262;28;20078;-71
2022/11/25 14:48:15;;;;;;;;;;;14.90;99.90;;;;;;8367673;28;19964;-70
2022/11/25 14:52:19;;;;;;;;;;;15.10;99.90;;;;;;8391850;28;19930;-71
2022/11/25 14:56:32;;;;;;;;;;;14.90;99.90;;;;;;8391190;28;20015;-71
2022/11/25 15:00:48;;;;;;;;;;;14.40;99.90;;;;;;8383177;28;20417;-71
2022/11/25 15:04:49;;;;;;;;;;;13.80;99.90;;;;;;8369539;28;19937;-70
2022/11/25 15:08:55;;;;;;;;;;;13.40;99.90;;;;;;8385596;28;19935;-70
2022/11/25 15:12:57;;;;;;;;;;;13.10;99.90;;;;;;8375346;28;19928;-70
2022/11/25 15:16:59;;;;;;;;;;;12.90;99.90;;;;;;8396604;28;20011;-70
2022/11/25 15:21:01;;;;;;;;;;;12.70;99.90;;;;;;8393195;28;19978;-71
2022/11/25 15:25:07;;;;;;;;;;;12.60;99.90;;;;;;8396724;28;20018;-71
2022/11/25 15:29:11;;;;;;;;;;;12.60;99.90;;;;;;8393016;28;19951;-70
2022/11/25 15:33:13;;;;;;;;;;;12.50;99.90;;;;;;8377490;28;20302;-70
2022/11/25 15:37:14;;;;;;;;;;;12.40;99.90;;;;;;8375350;28;19932;-70
2022/11/25 15:41:23;;;;;;;;;;;12.40;99.90;;;;;;8393998;28;19935;-70
2022/11/25 15:45:25;;;;;;;;;;;12.30;99.90;;;;;;8391869;28;20605;-70
2022/11/25 15:49:27;;;;;;;;;;;12.30;99.90;;;;;;8383527;28;20023;-70
2022/11/25 15:53:31;;;;;;;;;;;12.20;99.90;;;;;;8383695;28;20384;-70
2022/11/25 15:57:35;;;;;;;;;;;12.20;99.90;;;;;;8395311;28;20297;-70
2022/11/25 16:01:37;;;;;;;;;;;12.10;99.90;;;;;;8401701;28;20407;-70
2022/11/25 16:05:50;;;;;;;;;;;12.00;99.90;;;;;;8393738;28;19932;-70
2022/11/25 16:09:52;;;;;;;;;;;11.90;99.90;;;;;;8387619;28;19979;-70
2022/11/25 16:13:55;;;;;;;;;;;11.80;99.90;;;;;;8391843;28;19928;-71
2022/11/25 16:17:56;;;;;;;;;;;11.70;99.90;;;;;;8391785;28;19936;-70
2022/11/25 16:22:13;;;;;;;;;;;11.60;99.90;;;;;;8378919;28;20045;-70
2022/11/25 16:26:20;;;;;;;;;;;11.50;99.90;;;;;;8384979;28;19968;-70
2022/11/25 16:30:21;;;;;;;;;;;11.40;99.90;;;;;;8403440;28;19970;-70
2022/11/25 16:34:24;;;;;;;;;;;11.30;99.90;;;;;;8396815;28;19924;-70
2022/11/25 16:38:26;;;;;;;;;;;11.10;99.90;;;;;;8388953;28;19939;-70
2022/11/25 16:42:27;;;;;;;;;;;11.00;99.90;;;;;;8388396;28;19924;-70
2022/11/25 16:46:29;;;;;;;;;;;11.00;99.90;;;;;;8392525;28;24451;-70
2022/11/25 16:50:30;;;;;;;;;;;10.90;99.90;;;;;;8377532;28;19932;-70
2022/11/25 16:54:32;;;;;;;;;;;10.80;99.90;;;;;;8388663;28;20058;-70
2022/11/25 16:58:34;;;;;;;;;;;10.70;99.90;;;;;;8390191;28;19928;-70
2022/11/25 17:02:36;;;;;;;;;;;10.70;99.90;;;;;;8370246;28;19950;-71
2022/11/25 17:06:38;;;;;;;;;;;10.70;99.90;;;;;;8389611;28;20310;-70
2022/11/25 17:10:40;;;;;;;;;;;10.70;99.90;;;;;;8409475;28;19931;-71
2022/11/25 17:14:43;;;;;;;;;;;10.60;99.90;;;;;;8393583;28;19935;-70
2022/11/25 17:18:45;;;;;;;;;;;10.50;99.90;;;;;;8387673;28;19928;-70
2022/11/25 17:22:47;;;;;;;;;;;10.40;99.90;;;;;;8391682;28;19925;-70
2022/11/25 17:26:52;;;;;;;;;;;10.30;99.90;;;;;;8376295;28;19927;-70
2022/11/25 17:30:53;;;;;;;;;;;10.20;99.90;;;;;;8376587;28;19939;-70
2022/11/25 17:34:55;;;;;;;;;;;10.10;99.90;;;;;;8385926;28;19924;-70
2022/11/25 17:38:57;;;;;;;;;;;10.10;99.90;;;;;;8380702;28;20003;-70
2022/11/25 17:42:58;;;;;;;;;;;10.00;99.90;;;;;;8391824;28;19924;-70
2022/11/25 17:47:00;;;;;;;;;;;9.90;99.90;;;;;;8379053;28;19928;-71
2022/11/25 17:51:02;;;;;;;;;;;9.80;99.90;;;;;;8378459;28;20028;-71
2022/11/25 17:55:07;;;;;;;;;;;9.80;99.90;;;;;;8398878;28;19924;-70
2022/11/25 17:59:22;;;;;;;;;;;9.70;99.90;;;;;;8386236;28;20433;-70
2022/11/25 18:03:24;;;;;;;;;;;9.60;99.90;;;;;;8391731;28;19931;-71
2022/11/25 18:07:25;;;;;;;;;;;9.50;99.90;;;;;;8390405;28;19928;-71
2022/11/25 18:11:27;;;;;;;;;;;9.40;99.90;;;;;;8389356;28;20007;-70
2022/11/25 18:15:30;;;;;;;;;;;9.30;99.90;;;;;;8380659;28;19931;-70
2022/11/25 18:19:32;;;;;;;;;;;9.30;99.90;;;;;;8384377;28;19932;-71
2022/11/25 18:23:34;;;;;;;;;;;9.20;99.90;;;;;;8386904;28;19928;-71
2022/11/25 18:27:36;;;;;;;;;;;9.20;99.90;;;;;;8382648;28;19938;-71
2022/11/25 18:31:38;;;;;;;;;;;9.10;99.90;;;;;;8393957;28;19933;-70
2022/11/25 18:35:40;;;;;;;;;;;9.10;99.90;;;;;;8408827;28;20020;-71
2022/11/25 18:39:42;;;;;;;;;;;9.10;99.90;;;;;;8380130;28;19932;-70
2022/11/25 18:43:43;;;;;;;;;;;8.90;99.90;;;;;;8398113;28;19925;-70
2022/11/25 18:47:45;;;;;;;;;;;8.80;99.90;;;;;;8395686;28;19978;-70
2022/11/25 18:51:47;;;;;;;;;;;8.80;99.90;;;;;;8395565;28;20014;-71
2022/11/25 18:55:48;;;;;;;;;;;8.80;99.90;;;;;;8385362;28;20022;-70
2022/11/25 18:59:50;;;;;;;;;;;8.70;99.90;;;;;;8392346;28;19987;-74
2022/11/25 19:04:15;;;;;;;;;;;8.70;99.90;;;;;;8375858;28;20059;-75
2022/11/25 19:08:17;;;;;;;;;;;8.60;99.90;;;;;;8393151;28;19934;-74
2022/11/25 19:12:19;;;;;;;;;;;8.60;99.90;;;;;;8389260;28;19929;-75
2022/11/25 19:16:21;;;;;;;;;;;8.50;99.90;;;;;;8399647;28;20291;-74
2022/11/25 19:20:25;;;;;;;;;;;8.50;99.90;;;;;;8399771;28;19970;-74
2022/11/25 19:24:26;;;;;;;;;;;8.50;99.90;;;;;;8409673;28;19924;-74
2022/11/25 19:28:29;;;;;;;;;;;8.40;99.90;;;;;;8401573;28;19966;-74
2022/11/25 19:32:31;;;;;;;;;;;8.40;99.90;;;;;;8398030;28;20089;-74
2022/11/25 19:36:36;;;;;;;;;;;8.30;99.90;;;;;;8403957;28;20055;-74
2022/11/25 19:40:39;;;;;;;;;;;8.20;99.90;;;;;;8400456;28;20364;-74
2022/11/25 19:44:41;;;;;;;;;;;8.20;99.90;;;;;;8384512;28;20007;-74
2022/11/25 19:48:43;;;;;;;;;;;8.10;99.90;;;;;;8399522;28;19924;-74
2022/11/25 19:52:44;;;;;;;;;;;8.10;99.90;;;;;;8399660;28;19924;-74
2022/11/25 19:56:46;;;;;;;;;;;8.10;99.90;;;;;;8394912;28;19928;-74
2022/11/25 20:00:48;;;;;;;;;;;8.10;99.90;;;;;;8396520;28;19935;-74
2022/11/25 20:04:51;;;;;;;;;;;8.10;99.90;;;;;;8386976;28;20023;-74
2022/11/25 20:08:52;;;;;;;;;;;8.10;99.90;;;;;;8374981;28;20481;-74
2022/11/25 20:12:56;;;;;;;;;;;8.10;99.90;;;;;;8395584;28;19936;-74
2022/11/25 20:16:58;;;;;;;;;;;8.00;99.90;;;;;;8390057;28;20383;-74
2022/11/25 20:21:01;;;;;;;;;;;8.00;99.90;;;;;;8399482;28;19929;-74
2022/11/25 20:25:04;;;;;;;;;;;8.00;99.90;;;;;;8385029;28;20009;-74
2022/11/25 20:29:12;;;;;;;;;;;8.00;99.90;;;;;;8398930;28;19946;-74
2022/11/25 20:33:14;;;;;;;;;;;7.90;99.90;;;;;;8385047;28;20015;-74
2022/11/25 20:37:22;;;;;;;;;;;7.90;99.90;;;;;;8402260;28;19928;-74
2022/11/25 20:41:25;;;;;;;;;;;7.80;99.90;;;;;;8390476;28;19975;-74
2022/11/25 20:45:28;;;;;;;;;;;7.80;99.90;;;;;;8373973;28;19985;-74
2022/11/25 20:49:32;;;;;;;;;;;7.70;99.90;;;;;;8394186;28;19961;-74
2022/11/25 20:53:33;;;;;;;;;;;7.60;99.90;;;;;;8398611;28;19932;-74
2022/11/25 20:57:35;;;;;;;;;;;7.40;99.90;;;;;;8393540;28;20019;-74
2022/11/25 21:01:37;;;;;;;;;;;7.30;99.90;;;;;;8391790;28;19942;-74
2022/11/25 21:05:38;;;;;;;;;;;7.20;99.90;;;;;;8391653;28;19927;-74
2022/11/25 21:09:40;;;;;;;;;;;7.20;99.90;;;;;;8395498;28;19936;-74
2022/11/25 21:13:42;;;;;;;;;;;7.10;99.90;;;;;;8394926;28;19924;-74
2022/11/25 21:17:44;;;;;;;;;;;7.00;99.90;;;;;;8392320;28;19924;-75
2022/11/25 21:21:47;;;;;;;;;;;7.00;99.90;;;;;;8385350;28;19960;-74
2022/11/25 21:25:49;;;;;;;;;;;6.90;99.90;;;;;;8390223;28;19939;-75
2022/11/25 21:29:50;;;;;;;;;;;6.80;99.90;;;;;;8396850;28;19951;-74
2022/11/25 21:33:56;;;;;;;;;;;6.80;99.90;;;;;;8395059;28;19933;-74
2022/11/25 21:38:01;;;;;;;;;;;6.70;99.90;;;;;;8389248;28;19928;-74
2022/11/25 21:42:06;;;;;;;;;;;6.70;99.90;;;;;;8391570;28;19929;-74
2022/11/25 21:46:11;;;;;;;;;;;6.60;99.90;;;;;;8389003;28;19932;-74
2022/11/25 21:50:14;;;;;;;;;;;6.50;99.90;;;;;;8385418;28;19972;-74
2022/11/25 21:54:15;;;;;;;;;;;6.50;99.90;;;;;;8377473;28;19934;-74
2022/11/25 21:58:26;;;;;;;;;;;6.50;99.90;;;;;;8381810;28;20459;-74
2022/11/25 22:02:28;;;;;;;;;;;6.40;99.90;;;;;;8395720;28;19925;-74
2022/11/25 22:06:30;;;;;;;;;;;6.40;99.90;;;;;;8397398;28;19936;-74
2022/11/25 22:10:32;;;;;;;;;;;6.30;99.90;;;;;;8419511;28;19966;-74
2022/11/25 22:14:36;;;;;;;;;;;6.30;99.90;;;;;;8405703;28;21841;-74
2022/11/25 22:18:38;;;;;;;;;;;6.20;99.90;;;;;;8429016;28;19928;-74
2022/11/25 22:22:40;;;;;;;;;;;6.20;99.90;;;;;;8407785;28;19924;-74
2022/11/25 22:26:43;;;;;;;;;;;6.10;99.90;;;;;;8408207;28;19963;-74
2022/11/25 22:30:47;;;;;;;;;;;6.10;99.90;;;;;;8404007;28;20394;-74
2022/11/25 22:34:49;;;;;;;;;;;6.00;99.90;;;;;;8409847;28;19938;-74
2022/11/25 22:38:50;;;;;;;;;;;5.90;99.90;;;;;;8415978;28;19924;-74
2022/11/25 22:42:53;;;;;;;;;;;5.90;99.90;;;;;;8410025;28;19932;-74
2022/11/25 22:46:55;;;;;;;;;;;5.80;99.90;;;;;;8401192;28;19924;-74
2022/11/25 22:50:56;;;;;;;;;;;5.70;99.90;;;;;;8412922;28;19955;-74
2022/11/25 22:54:59;;;;;;;;;;;5.70;99.90;;;;;;8407457;28;19924;-74
2022/11/25 22:59:00;;;;;;;;;;;5.60;99.90;;;;;;8410504;28;19967;-74
2022/11/25 23:03:04;;;;;;;;;;;5.60;99.90;;;;;;8407626;28;20353;-74
2022/11/25 23:07:10;;;;;;;;;;;5.50;99.90;;;;;;8407800;28;19955;-74
2022/11/25 23:11:19;;;;;;;;;;;5.50;99.90;;;;;;8396182;28;19947;-74
2022/11/25 23:15:22;;;;;;;;;;;5.50;99.90;;;;;;8402536;28;20438;-74
2022/11/25 23:19:24;;;;;;;;;;;5.40;99.90;;;;;;8404818;28;19931;-74
2022/11/25 23:23:27;;;;;;;;;;;5.40;99.90;;;;;;8418308;28;20066;-74
2022/11/25 23:27:29;;;;;;;;;;;5.40;99.90;;;;;;8425579;28;19931;-74
2022/11/25 23:31:33;;;;;;;;;;;5.30;99.90;;;;;;8392753;28;19931;-74
2022/11/25 23:35:35;;;;;;;;;;;5.20;99.90;;;;;;8408463;28;19989;-74
2022/11/25 23:39:37;;;;;;;;;;;5.20;99.90;;;;;;8406838;28;19947;-74
2022/11/25 23:43:39;;;;;;;;;;;5.20;99.90;;;;;;8406933;28;20417;-74
2022/11/25 23:47:41;;;;;;;;;;;5.10;99.90;;;;;;8419999;28;19934;-74
2022/11/25 23:51:43;;;;;;;;;;;5.00;99.90;;;;;;8391406;28;19939;-73
2022/11/25 23:55:45;;;;;;;;;;;5.00;99.90;;;;;;8412996;28;20359;-74
2022/11/25 23:59:47;;;;;;;;;;;5.00;99.90;;;;;;8404496;28;19932;-75
